Time;durP1;ratioP1;P1;durP2;ratioP2;P2;SDS_P1;SDS_P2;PMS_P1;PMS_P2;Temp;Humidity;BMP_temperature;BMP_pressure;BME280_temperature;BME280_humidity;BME280_pressure;Samples;Min_cycle;Max_cycle;Signal;HPM_P1;HPM_P2
2022/11/18 00:03:09;;;;;;;19.60;12.90;;;;;;;-0.62;74.00;98771.70;207314;1285;139976;-68
2022/11/18 00:08:14;;;;;;;19.70;14.80;;;;;;;-0.66;74.00;98765.17;210259;1288;141261;-69
2022/11/18 00:18:40;;;;;;;20.90;15.90;;;;;;;-0.50;74.23;98763.02;209658;1299;141385;-69
2022/11/18 00:23:44;;;;;;;20.80;12.90;;;;;;;-0.44;74.19;98764.40;209768;1301;140048;-69
2022/11/18 00:28:48;;;;;;;20.50;12.90;;;;;;;-0.44;74.38;98761.35;209827;1287;139311;-69
2022/11/18 00:33:51;;;;;;;20.10;13.90;;;;;;;-0.52;73.58;98768.19;210273;1295;140899;-70
2022/11/18 00:38:54;;;;;;;20.60;13.10;;;;;;;-0.61;73.51;98772.95;209134;1294;140737;-67
2022/11/18 00:43:58;;;;;;;13.40;9.70;;;;;;;-0.62;73.78;98770.80;209607;1294;140709;-67
2022/11/18 00:49:02;;;;;;;17.80;12.40;;;;;;;-0.64;73.88;98773.65;210139;1295;139693;-69
2022/11/18 00:54:05;;;;;;;20.00;13.90;;;;;;;-0.61;73.90;98770.81;210512;1288;140693;-69
2022/11/18 00:59:09;;;;;;;19.50;13.50;;;;;;;-0.56;73.75;98774.10;210535;1293;141594;-69
2022/11/18 01:04:14;;;;;;;18.60;14.00;;;;;;;-0.57;73.39;98780.17;210342;1287;140579;-69
2022/11/18 01:09:17;;;;;;;16.90;12.50;;;;;;;-0.61;73.36;98778.66;210524;1291;139878;-69
2022/11/18 01:14:23;;;;;;;14.90;11.40;;;;;;;-0.69;73.13;98780.20;210286;1296;139587;-69
2022/11/18 01:19:27;;;;;;;15.50;10.80;;;;;;;-0.80;72.78;98788.98;210225;1295;140820;-69
2022/11/18 01:24:32;;;;;;;15.60;11.20;;;;;;;-0.80;72.73;98799.80;210247;1278;141509;-69
2022/11/18 01:29:35;;;;;;;14.80;10.50;;;;;;;-0.85;72.65;98814.88;210275;1295;139714;-69
2022/11/18 01:34:39;;;;;;;11.20;8.70;;;;;;;-0.96;72.51;98807.52;210410;1295;140842;-69
2022/11/18 01:39:42;;;;;;;18.50;12.60;;;;;;;-1.07;72.54;98811.77;210608;1294;139623;-69
2022/11/18 01:45:18;;;;;;;13.00;9.20;;;;;;;-1.13;72.68;98813.93;210275;1295;151945;-69
2022/11/18 01:50:23;;;;;;;13.80;10.40;;;;;;;-1.15;72.65;98811.70;210366;1288;140887;-69
2022/11/18 01:55:30;;;;;;;20.40;12.60;;;;;;;-1.15;72.62;98809.61;210173;1295;142527;-69
2022/11/18 02:00:33;;;;;;;13.20;8.80;;;;;;;-1.12;72.57;98807.52;209040;1294;140931;-69
2022/11/18 02:05:39;;;;;;;13.20;9.40;;;;;;;-1.19;72.34;98799.98;210431;1288;139311;-69
2022/11/18 02:10:42;;;;;;;12.30;9.10;;;;;;;-1.23;72.80;98791.78;210295;1293;140364;-69
2022/11/18 02:16:14;;;;;;;14.00;9.70;;;;;;;-1.20;72.60;98795.35;210521;1295;141144;-70
2022/11/18 02:21:33;;;;;;;17.50;10.60;;;;;;;-1.17;72.53;98797.64;210586;1287;141268;-70
2022/11/18 02:26:53;;;;;;;14.20;9.90;;;;;;;-1.14;72.46;98799.73;210378;1295;140981;-70
2022/11/18 02:31:59;;;;;;;15.10;9.30;;;;;;;-1.09;72.44;98798.06;210555;1291;140823;-69
2022/11/18 02:37:14;;;;;;;16.80;11.00;;;;;;;-1.08;72.25;98792.60;209151;1298;139314;-69
2022/11/18 02:42:19;;;;;;;15.70;10.50;;;;;;;-1.15;72.34;98780.96;210469;1294;139756;-71
2022/11/18 02:47:26;;;;;;;19.60;11.00;;;;;;;-1.18;72.35;98773.40;209609;1295;140200;-71
2022/11/18 02:52:32;;;;;;;17.00;11.60;;;;;;;-1.23;72.09;98761.85;210197;1295;141051;-70
2022/11/18 02:57:38;;;;;;;15.30;11.90;;;;;;;-1.22;72.21;98751.56;210354;1295;140544;-71
2022/11/18 03:02:45;;;;;;;13.20;9.60;;;;;;;-1.18;71.84;98756.86;210131;1295;141567;-68
2022/11/18 03:07:56;;;;;;;16.90;12.40;;;;;;;-1.20;71.64;98752.86;210454;1295;234521;-69
2022/11/18 03:13:15;;;;;;;16.60;12.10;;;;;;;-1.23;71.71;98753.60;210508;1295;140352;-69
2022/11/18 03:18:31;;;;;;;20.00;13.80;;;;;;;-1.25;71.76;98751.90;210412;1295;141231;-70
2022/11/18 03:23:41;;;;;;;16.60;11.40;;;;;;;-1.23;71.88;98751.98;210367;1291;218610;-69
2022/11/18 03:29:08;;;;;;;25.60;13.90;;;;;;;-1.26;71.74;98755.55;210259;1295;140402;-70
2022/11/18 03:34:27;;;;;;;21.50;14.40;;;;;;;-1.21;71.55;98742.86;210398;1294;141233;-71
2022/11/18 03:39:36;;;;;;;16.70;10.70;;;;;;;-1.16;71.73;98745.83;210544;1293;140438;-70
2022/11/18 03:44:47;;;;;;;16.70;9.80;;;;;;;-1.22;71.68;98742.99;210318;1295;139593;-67
2022/11/18 03:50:05;;;;;;;15.70;11.20;;;;;;;-1.29;71.69;98744.96;210368;1295;161775;-68
2022/11/18 03:55:15;;;;;;;17.50;11.00;;;;;;;-1.38;71.37;98739.74;210326;1295;141595;-68
2022/11/18 04:00:19;;;;;;;17.80;13.40;;;;;;;-1.40;71.28;98735.58;209189;1294;140367;-68
2022/11/18 04:05:22;;;;;;;14.10;12.00;;;;;;;-1.40;71.30;98734.53;210462;1295;139924;-68
2022/11/18 04:10:48;;;;;;;21.60;11.90;;;;;;;-1.47;71.01;98736.56;210059;1295;140115;-68
2022/11/18 04:15:53;;;;;;;18.30;12.90;;;;;;;-1.58;71.09;98730.58;209341;1292;139696;-68
2022/11/18 04:20:56;;;;;;;15.50;11.30;;;;;;;-1.66;71.04;98721.85;210018;1295;140494;-67
2022/11/18 04:26:00;;;;;;;14.60;10.30;;;;;;;-1.68;71.25;98716.31;209690;1295;140569;-67
2022/11/18 04:31:04;;;;;;;20.20;13.30;;;;;;;-1.79;70.93;98711.31;208954;1278;140275;-68
2022/11/18 04:36:07;;;;;;;16.00;10.80;;;;;;;-1.86;71.24;98707.10;210415;1296;140184;-68
2022/11/18 04:41:11;;;;;;;21.80;15.00;;;;;;;-1.84;71.41;98713.30;209910;1294;140453;-68
2022/11/18 04:46:14;;;;;;;30.50;15.90;;;;;;;-1.82;71.31;98704.98;210335;1295;140583;-67
2022/11/18 04:51:18;;;;;;;23.10;13.60;;;;;;;-1.82;71.61;98712.19;208344;1286;140368;-68
2022/11/18 04:56:21;;;;;;;30.70;18.40;;;;;;;-1.84;71.44;98712.58;208784;1295;141700;-68
2022/11/18 05:01:26;;;;;;;29.50;18.00;;;;;;;-1.86;71.73;98715.59;210261;1295;140298;-69
2022/11/18 05:06:31;;;;;;;27.30;17.60;;;;;;;-1.76;71.83;98719.52;210283;1301;139659;-70
2022/11/18 05:16:59;;;;;;;27.70;17.70;;;;;;;-1.69;72.03;98715.14;210117;1286;299178;-69
2022/11/18 05:22:03;;;;;;;29.30;17.40;;;;;;;-1.69;72.12;98712.89;210342;1295;221178;-69
2022/11/18 05:27:06;;;;;;;25.90;15.10;;;;;;;-1.63;72.53;98716.91;210256;1294;141282;-69
2022/11/18 05:32:11;;;;;;;26.00;16.50;;;;;;;-1.60;72.74;98721.82;210057;1298;139957;-67
2022/11/18 05:37:14;;;;;;;28.70;15.00;;;;;;;-1.59;72.61;98719.66;210192;1288;139979;-67
2022/11/18 05:47:58;;;;;;;18.60;13.10;;;;;;;-1.68;72.90;98723.83;210278;1296;247846;-67
2022/11/18 05:53:03;;;;;;;25.90;17.00;;;;;;;-1.72;73.50;98736.28;209909;1294;150528;-67
2022/11/18 05:58:07;;;;;;;24.50;14.70;;;;;;;-1.77;73.34;98742.36;207595;1286;140570;-65
2022/11/18 06:03:18;;;;;;;23.70;14.70;;;;;;;-1.75;73.63;98746.52;209890;1288;141248;-68
2022/11/18 06:08:27;;;;;;;23.10;13.40;;;;;;;-1.79;73.94;98756.77;210335;1294;141173;-68
2022/11/18 06:13:38;;;;;;;28.90;16.40;;;;;;;-1.82;74.19;98763.67;210202;1300;141166;-68
2022/11/18 06:18:42;;;;;;;20.00;13.60;;;;;;;-1.77;74.22;98764.31;210320;1294;140983;-67
2022/11/18 06:23:45;;;;;;;17.30;11.60;;;;;;;-1.80;74.36;98773.55;210225;1277;150639;-68
2022/11/18 06:28:49;;;;;;;19.50;12.10;;;;;;;-1.79;74.49;98784.48;209728;1294;139564;-69
2022/11/18 06:33:52;;;;;;;18.10;10.80;;;;;;;-1.76;74.58;98792.75;210350;1294;141326;-70
2022/11/18 06:38:56;;;;;;;20.00;12.90;;;;;;;-1.71;74.39;98799.66;208092;1285;140341;-67
2022/11/18 06:43:59;;;;;;;16.50;10.40;;;;;;;-1.69;74.23;98800.85;210131;1290;140196;-67
2022/11/18 06:49:03;;;;;;;18.70;9.90;;;;;;;-1.72;74.53;98807.52;210211;1290;141699;-67
2022/11/18 06:54:07;;;;;;;16.00;8.80;;;;;;;-1.73;74.49;98803.27;210218;1294;141696;-67
2022/11/18 06:59:13;;;;;;;18.10;10.70;;;;;;;-1.72;74.37;98805.55;209980;1301;140092;-67
2022/11/18 07:04:17;;;;;;;19.80;13.00;;;;;;;-1.71;74.53;98807.01;210194;1294;141316;-66
2022/11/18 07:09:21;;;;;;;18.20;9.70;;;;;;;-1.68;74.69;98806.86;210397;1294;139870;-67
2022/11/18 07:14:25;;;;;;;26.20;11.90;;;;;;;-1.66;74.60;98807.13;210423;1295;140647;-68
2022/11/18 07:19:29;;;;;;;17.30;10.90;;;;;;;-1.60;74.71;98810.96;210347;1295;140705;-69
2022/11/18 07:24:39;;;;;;;11.60;8.00;;;;;;;-1.61;74.66;98813.55;210375;1302;141109;-67
2022/11/18 07:29:43;;;;;;;14.40;10.00;;;;;;;-1.65;74.40;98816.98;210245;1295;140008;-70
2022/11/18 07:34:46;;;;;;;10.10;6.70;;;;;;;-1.65;74.42;98822.05;210082;1295;139884;-68
2022/11/18 07:39:50;;;;;;;21.00;9.90;;;;;;;-1.61;74.14;98829.78;210408;1294;141451;-68
2022/11/18 07:44:54;;;;;;;17.10;9.80;;;;;;;-1.55;74.12;98833.86;210416;1295;139965;-69
2022/11/18 07:49:58;;;;;;;12.00;7.30;;;;;;;-1.51;74.16;98837.45;210417;1287;140018;-68
2022/11/18 07:55:02;;;;;;;10.40;7.10;;;;;;;-1.60;74.28;98834.73;210351;1295;139877;-68
2022/11/18 08:00:06;;;;;;;10.80;6.30;;;;;;;-1.66;74.24;98830.39;210380;1292;141051;-67
2022/11/18 08:05:10;;;;;;;13.00;5.80;;;;;;;-1.68;73.94;98828.96;209312;1295;140125;-68
2022/11/18 08:10:20;;;;;;;7.70;5.10;;;;;;;-1.67;74.18;98825.00;210550;1292;139711;-68
2022/11/18 08:15:24;;;;;;;5.90;4.50;;;;;;;-1.67;74.07;98820.86;210602;1292;140731;-67
2022/11/18 08:20:28;;;;;;;6.60;4.00;;;;;;;-1.68;73.88;98825.89;210247;1300;140536;-68
2022/11/18 08:25:31;;;;;;;4.30;3.80;;;;;;;-1.73;73.33;98834.72;210703;1292;140556;-67
2022/11/18 08:30:35;;;;;;;5.60;3.50;;;;;;;-1.77;73.44;98838.34;209620;1292;225456;-68
2022/11/18 08:35:39;;;;;;;4.40;3.40;;;;;;;-1.80;73.54;98830.34;210449;1300;141483;-68
2022/11/18 08:40:46;;;;;;;5.90;4.00;;;;;;;-1.79;73.29;98832.88;208708;1286;141095;-67
2022/11/18 08:45:51;;;;;;;8.80;4.60;;;;;;;-1.69;73.21;98832.11;209438;1292;142071;-67
2022/11/18 08:50:57;;;;;;;4.10;3.00;;;;;;;-1.64;73.00;98829.95;210421;1291;139441;-68
2022/11/18 08:56:01;;;;;;;9.70;5.20;;;;;;;-1.60;72.90;98831.05;210620;1284;140551;-68
2022/11/18 09:01:06;;;;;;;12.00;6.30;;;;;;;-1.53;72.97;98837.85;209517;1298;140471;-69
2022/11/18 09:06:10;;;;;;;10.80;5.00;;;;;;;-1.45;72.70;98847.50;210347;1292;141223;-68
2022/11/18 09:11:16;;;;;;;7.80;4.30;;;;;;;-1.29;72.35;98847.25;210522;1296;140608;-68
2022/11/18 09:16:22;;;;;;;5.80;4.20;;;;;;;-1.14;72.00;98843.48;210545;1291;139637;-68
2022/11/18 09:21:29;;;;;;;6.90;4.50;;;;;;;-1.04;72.02;98833.29;210623;1290;139645;-68
2022/11/18 09:26:33;;;;;;;4.00;2.80;;;;;;;-0.91;71.69;98833.96;210741;1300;140531;-68
2022/11/18 09:31:37;;;;;;;4.00;2.30;;;;;;;-0.82;70.96;98832.98;210539;1293;139965;-68
2022/11/18 09:36:41;;;;;;;2.70;2.10;;;;;;;-0.70;70.57;98830.36;210651;1295;141866;-68
2022/11/18 09:41:48;;;;;;;2.80;2.00;;;;;;;-0.69;70.16;98827.70;210604;1295;155824;-67
2022/11/18 09:47:28;;;;;;;2.80;2.50;;;;;;;-0.65;70.08;98821.27;210335;1300;141165;-67
2022/11/18 09:52:35;;;;;;;5.50;4.70;;;;;;;-0.58;69.82;98804.16;210434;1295;139459;-66
2022/11/18 09:57:49;;;;;;;4.00;3.10;;;;;;;-0.43;69.74;98810.20;210538;1292;141523;-66
2022/11/18 10:03:27;;;;;;;5.50;3.80;;;;;;;-0.32;69.48;98812.30;210636;1295;140490;-66
2022/11/18 10:08:48;;;;;;;6.90;4.00;;;;;;;-0.41;69.81;98815.67;210331;1294;140283;-66
2022/11/18 10:14:57;;;;;;;4.70;3.80;;;;;;;-0.48;69.64;98812.38;209781;1298;140570;-68
2022/11/18 10:20:10;;;;;;;;;;;;;;;-0.60;69.57;98816.60;208899;1286;141744;-67
2022/11/18 10:25:16;;;;;;;7.40;3.80;;;;;;;-0.68;69.80;98820.52;208141;1295;128041;-67
2022/11/18 10:30:23;;;;;;;5.10;4.60;;;;;;;-0.71;69.65;98829.06;210374;1298;140750;-67
2022/11/18 10:35:35;;;;;;;10.30;5.50;;;;;;;-0.77;69.67;98829.95;210438;1293;139156;-68
2022/11/18 10:40:49;;;;;;;8.70;4.20;;;;;;;-0.82;70.07;98835.39;210259;1300;140160;-70
2022/11/18 10:45:53;;;;;;;10.40;6.20;;;;;;;-0.90;70.12;98838.05;209010;1297;140516;-64
2022/11/18 10:51:17;;;;;;;7.60;4.60;;;;;;;-0.91;70.12;98841.85;207079;1291;140287;-67
2022/11/18 10:56:24;;;;;;;6.80;4.80;;;;;;;-0.84;70.13;98845.52;209533;1295;140281;-68
2022/11/18 11:01:28;;;;;;;9.40;5.10;;;;;;;-0.83;70.14;98851.48;207254;1300;139911;-69
2022/11/18 11:06:36;;;;;;;8.30;4.80;;;;;;;-0.85;70.12;98856.85;208165;1293;139477;-66
2022/11/18 11:11:55;;;;;;;8.10;5.30;;;;;;;-0.93;69.95;98862.15;209552;1297;141014;-67
2022/11/18 11:17:15;;;;;;;7.70;4.40;;;;;;;-0.98;70.27;98865.23;210222;1296;140110;-68
2022/11/18 11:22:20;;;;;;;7.20;4.50;;;;;;;-1.02;70.30;98867.16;210301;1295;139733;-67
2022/11/18 11:27:45;;;;;;;5.90;4.20;;;;;;;-0.99;70.33;98873.80;210649;1303;140248;-67
2022/11/18 11:33:21;;;;;;;7.00;5.00;;;;;;;-0.91;70.46;98878.29;210416;1301;141925;-67
2022/11/18 11:38:41;;;;;;;8.10;5.50;;;;;;;-0.70;70.85;98870.68;210426;1293;139737;-72
2022/11/18 11:43:56;;;;;;;9.00;5.10;;;;;;;-0.44;70.90;98869.25;210371;1292;219118;-67
2022/11/18 11:49:06;;;;;;;6.80;5.20;;;;;;;-0.27;70.68;98872.48;210363;1293;139953;-70
2022/11/18 11:54:28;;;;;;;10.20;5.20;;;;;;;-0.20;70.35;98867.73;209333;1298;140915;-69
2022/11/18 11:59:47;;;;;;;10.20;5.50;;;;;;;-0.10;70.66;98870.16;207171;1291;140005;-70
2022/11/18 12:05:15;;;;;;;6.20;5.20;;;;;;;-0.07;70.22;98868.38;207285;1293;139882;-67
2022/11/18 12:10:34;;;;;;;7.00;4.20;;;;;;;-0.13;69.96;98866.67;207165;1298;139837;-66
2022/11/18 12:15:49;;;;;;;6.60;5.00;;;;;;;-0.10;69.65;98865.09;210542;1292;140548;-66
2022/11/18 12:20:53;;;;;;;4.00;3.30;;;;;;;0.07;69.44;98864.77;209153;1299;140295;-63
2022/11/18 12:26:08;;;;;;;7.70;4.40;;;;;;;0.25;69.22;98860.06;210442;1298;139832;-66
2022/11/18 12:31:15;;;;;;;7.80;4.70;;;;;;;0.30;68.74;98858.77;209799;1299;140615;-66
2022/11/18 12:36:38;;;;;;;8.80;5.20;;;;;;;0.29;69.24;98860.61;209485;1285;139805;-66
2022/11/18 12:47:11;;;;;;;8.80;5.00;;;;;;;0.10;69.45;98859.00;210531;1295;140015;-63
2022/11/18 12:52:30;;;;;;;7.90;5.00;;;;;;;0.08;69.36;98856.08;210331;1292;140737;-68
2022/11/18 12:57:34;;;;;;;8.50;6.40;;;;;;;0.08;69.63;98859.63;210548;1299;139702;-64
2022/11/18 13:02:38;;;;;;;7.00;4.60;;;;;;;0.07;69.21;98857.80;210515;1294;139740;-64
2022/11/18 13:13:26;;;;;;;9.70;6.00;;;;;;;-0.08;69.42;98860.18;210378;1298;139543;-71
2022/11/18 13:18:31;;;;;;;8.80;5.70;;;;;;;-0.24;69.33;98856.56;210330;1298;139551;-65
2022/11/18 13:23:50;;;;;;;9.00;5.50;;;;;;;-0.37;69.86;98859.83;210080;1302;140729;-64
2022/11/18 13:29:53;;;;;;;8.70;5.70;;;;;;;-0.40;69.97;98864.95;210119;1295;140308;-64
2022/11/18 13:35:09;;;;;;;8.30;4.70;;;;;;;-0.45;69.99;98868.55;208873;1301;223383;-63
2022/11/18 13:40:28;;;;;;;8.00;5.70;;;;;;;-0.49;70.46;98875.96;210229;1294;208276;-66
2022/11/18 13:45:33;;;;;;;8.80;6.10;;;;;;;-0.52;70.64;98880.23;210467;1295;139419;-65
2022/11/18 13:50:41;;;;;;;9.10;6.50;;;;;;;-0.54;70.61;98884.47;210175;1295;143188;-65
2022/11/18 13:56:05;;;;;;;11.50;6.70;;;;;;;-0.50;70.76;98884.64;210095;1296;139522;-67
2022/11/18 14:01:19;;;;;;;8.30;6.20;;;;;;;-0.45;70.63;98895.19;210306;1278;140215;-67
2022/11/18 14:06:34;;;;;;;11.10;7.10;;;;;;;-0.46;70.85;98894.09;210444;1295;140326;-67
2022/11/18 14:11:40;;;;;;;9.20;5.70;;;;;;;-0.48;71.07;98899.73;210336;1294;140756;-67
2022/11/18 14:16:44;;;;;;;10.70;5.90;;;;;;;-0.48;71.24;98901.51;210407;1289;141110;-64
2022/11/18 14:21:48;;;;;;;6.30;5.50;;;;;;;-0.52;70.76;98904.99;210371;1289;155132;-64
2022/11/18 14:26:52;;;;;;;8.10;6.20;;;;;;;-0.53;71.06;98909.79;210131;1301;141098;-67
2022/11/18 14:32:22;;;;;;;9.40;6.30;;;;;;;-0.52;70.91;98914.95;210228;1278;140900;-67
2022/11/18 14:37:27;;;;;;;9.50;5.60;;;;;;;-0.55;70.85;98921.71;210348;1294;141266;-67
2022/11/18 14:42:31;;;;;;;8.60;4.50;;;;;;;-0.55;70.87;98924.08;210447;1293;139124;-67
2022/11/18 14:47:34;;;;;;;6.70;5.00;;;;;;;-0.60;70.42;98925.16;210347;1289;140802;-67
2022/11/18 14:52:38;;;;;;;5.80;4.10;;;;;;;-0.61;70.07;98928.49;210002;1295;141293;-67
2022/11/18 14:57:41;;;;;;;7.60;4.50;;;;;;;-0.64;70.03;98933.34;208514;1288;141345;-67
2022/11/18 15:02:44;;;;;;;9.50;5.40;;;;;;;-0.73;70.08;98938.41;209549;1294;140865;-67
2022/11/18 15:07:48;;;;;;;10.60;5.40;;;;;;;-0.82;70.06;98943.45;210257;1295;139997;-69
2022/11/18 15:12:58;;;;;;;10.70;4.40;;;;;;;-0.83;70.22;98947.29;210352;1285;140095;-69
2022/11/18 15:18:02;;;;;;;5.80;4.60;;;;;;;-0.81;70.49;98947.91;210329;1295;142784;-70
2022/11/18 15:23:05;;;;;;;8.40;4.30;;;;;;;-0.77;70.24;98954.02;210172;1271;141178;-70
2022/11/18 15:28:09;;;;;;;5.90;5.10;;;;;;;-0.76;70.13;98955.29;209915;1295;140804;-73
2022/11/18 15:33:13;;;;;;;8.10;4.70;;;;;;;-0.78;70.20;98960.92;207036;1289;139941;-70
2022/11/18 15:38:16;;;;;;;6.00;5.30;;;;;;;-0.79;69.82;98967.84;207055;1281;139769;-66
2022/11/18 15:43:20;;;;;;;7.40;5.50;;;;;;;-0.86;69.68;98971.00;210252;1294;139422;-68
2022/11/18 15:48:24;;;;;;;6.10;5.30;;;;;;;-0.87;69.68;98977.34;210408;1294;140096;-69
2022/11/18 15:53:28;;;;;;;5.00;4.50;;;;;;;-0.83;69.92;98984.17;210295;1295;139514;-66
2022/11/18 15:58:33;;;;;;;6.60;3.70;;;;;;;-0.86;69.68;98989.23;210339;1295;140660;-72
2022/11/18 16:03:39;;;;;;;7.50;4.20;;;;;;;-0.90;69.64;98991.91;210475;1294;139923;-69
2022/11/18 16:08:45;;;;;;;15.60;7.20;;;;;;;-0.91;69.91;98998.30;210117;1281;143727;-65
2022/11/18 16:13:50;;;;;;;8.90;4.80;;;;;;;-0.92;70.03;99003.09;210328;1281;141344;-67
2022/11/18 16:18:58;;;;;;;12.00;5.20;;;;;;;-0.90;70.35;99004.95;210169;1294;141043;-67
2022/11/18 16:24:08;;;;;;;8.00;5.80;;;;;;;-0.91;70.03;99010.14;210363;1299;140395;-68
2022/11/18 16:29:17;;;;;;;8.90;5.70;;;;;;;-1.00;70.20;99013.92;210365;1294;140632;-64
2022/11/18 16:34:26;;;;;;;11.00;6.60;;;;;;;-1.13;70.12;99018.41;210368;1286;140209;-67
2022/11/18 16:39:31;;;;;;;36.30;12.40;;;;;;;-1.28;70.27;99028.56;210289;1286;140770;-68
2022/11/18 16:44:35;;;;;;;19.70;7.70;;;;;;;-1.30;70.42;99035.31;210294;1295;141679;-67
2022/11/18 16:49:39;;;;;;;16.40;8.10;;;;;;;-1.35;70.55;99035.96;210209;1288;142293;-68
2022/11/18 16:54:42;;;;;;;17.70;9.40;;;;;;;-1.36;70.95;99037.80;210179;1284;141583;-67
2022/11/18 16:59:49;;;;;;;8.00;5.50;;;;;;;-1.36;71.00;99032.05;210147;1288;139994;-67
2022/11/18 17:04:53;;;;;;;9.60;6.80;;;;;;;-1.38;70.98;99036.48;210112;1287;140849;-66
2022/11/18 17:10:00;;;;;;;8.90;6.30;;;;;;;-1.39;70.95;99040.98;210205;1292;142188;-65
2022/11/18 17:15:10;;;;;;;9.50;6.80;;;;;;;-1.37;71.18;99045.95;210048;1295;361657;-69
2022/11/18 17:20:13;;;;;;;9.10;8.00;;;;;;;-1.40;71.23;99050.86;210228;1288;139664;-69
2022/11/18 17:25:16;;;;;;;14.60;6.80;;;;;;;-1.42;71.23;99050.91;210585;1278;139775;-69
2022/11/18 17:30:20;;;;;;;10.70;7.50;;;;;;;-1.46;71.31;99053.46;210201;1279;220915;-70
2022/11/18 17:35:24;;;;;;;10.80;7.80;;;;;;;-1.50;71.44;99051.88;210238;1295;141354;-66
2022/11/18 17:40:28;;;;;;;14.60;9.20;;;;;;;-1.50;71.65;99056.84;210142;1293;140614;-67
2022/11/18 17:45:31;;;;;;;11.90;7.20;;;;;;;-1.50;71.63;99057.44;210414;1280;140921;-68
2022/11/18 17:50:35;;;;;;;12.90;8.70;;;;;;;-1.52;71.84;99057.09;210357;1290;139800;-67
2022/11/18 17:55:39;;;;;;;16.30;10.50;;;;;;;-1.55;72.09;99057.85;210350;1292;139863;-67
2022/11/18 18:00:43;;;;;;;12.70;8.50;;;;;;;-1.51;72.33;99064.99;210311;1295;140902;-67
2022/11/18 18:05:47;;;;;;;9.70;7.80;;;;;;;-1.43;72.37;99072.42;209991;1295;140673;-66
2022/11/18 18:10:51;;;;;;;10.80;6.50;;;;;;;-1.43;72.51;99072.38;210463;1294;140224;-65
2022/11/18 18:16:00;;;;;;;14.20;9.70;;;;;;;-1.48;72.71;99069.84;210428;1290;139467;-66
2022/11/18 18:21:03;;;;;;;12.20;9.50;;;;;;;-1.50;72.89;99073.31;210248;1294;139855;-67
2022/11/18 18:26:14;;;;;;;14.30;8.70;;;;;;;-1.44;72.87;99078.11;210277;1294;247551;-66
2022/11/18 18:31:18;;;;;;;14.10;7.50;;;;;;;-1.47;72.76;99079.83;210074;1294;139701;-67
2022/11/18 18:36:24;;;;;;;12.90;8.70;;;;;;;-1.50;72.87;99083.52;210291;1294;139361;-67
2022/11/18 18:41:27;;;;;;;11.00;8.60;;;;;;;-1.57;72.66;99084.06;210206;1295;140796;-64
2022/11/18 18:46:31;;;;;;;8.80;5.90;;;;;;;-1.61;72.56;99091.43;210243;1287;140014;-63
2022/11/18 18:51:38;;;;;;;7.70;6.80;;;;;;;-1.60;72.52;99094.23;210423;1289;140409;-64
2022/11/18 18:56:42;;;;;;;8.00;5.90;;;;;;;-1.67;72.76;99099.77;210061;1293;140311;-63
2022/11/18 19:01:46;;;;;;;10.20;7.00;;;;;;;-1.75;72.66;99102.86;210210;1291;140133;-66
2022/11/18 19:06:50;;;;;;;10.50;6.70;;;;;;;-1.79;72.54;99109.12;210288;1279;139811;-67
2022/11/18 19:17:25;;;;;;;12.10;6.70;;;;;;;-1.87;72.66;99121.16;210337;1294;140228;-67
2022/11/18 19:22:33;;;;;;;11.20;6.70;;;;;;;-1.90;72.79;99121.02;210221;1294;140094;-65
2022/11/18 19:27:39;;;;;;;12.00;7.60;;;;;;;-1.92;72.95;99120.66;210215;1271;139545;-67
2022/11/18 19:32:44;;;;;;;11.10;6.20;;;;;;;-1.95;72.74;99126.64;210298;1295;141590;-68
2022/11/18 19:37:48;;;;;;;7.00;5.00;;;;;;;-1.98;73.02;99126.42;210087;1301;140340;-67
2022/11/18 19:42:52;;;;;;;11.40;6.90;;;;;;;-2.04;73.01;99133.45;210372;1283;139756;-64
2022/11/18 19:47:58;;;;;;;13.40;8.40;;;;;;;-2.07;72.90;99139.66;210317;1279;142038;-66
2022/11/18 19:53:30;;;;;;;9.10;6.50;;;;;;;-2.02;72.98;99143.60;210297;1285;141868;-65
2022/11/18 19:58:25;;;;;;;8.80;7.50;;;;;;;-2.02;72.57;99152.42;210456;1294;140721;-63
2022/11/18 20:03:29;;;;;;;12.40;8.30;;;;;;;-2.03;72.62;99158.46;210270;1295;139238;-65
2022/11/18 20:08:34;;;;;;;11.90;6.60;;;;;;;-2.10;72.30;99155.38;210258;1284;162564;-69
2022/11/18 20:13:38;;;;;;;8.00;6.20;;;;;;;-2.15;72.09;99162.94;210232;1295;140661;-64
2022/11/18 20:18:42;;;;;;;12.50;8.10;;;;;;;-2.24;71.96;99160.23;210276;1284;139722;-68
2022/11/18 20:23:47;;;;;;;11.90;6.90;;;;;;;-2.32;71.99;99162.85;210268;1293;140906;-64
2022/11/18 20:28:51;;;;;;;12.50;8.00;;;;;;;-2.37;71.90;99164.45;210314;1294;139961;-68
2022/11/18 20:34:00;;;;;;;7.60;5.30;;;;;;;-2.41;71.70;99170.10;210273;1295;141898;-67
2022/11/18 20:39:06;;;;;;;10.80;6.20;;;;;;;-2.50;71.49;99172.67;210304;1288;139839;-70
2022/11/18 20:44:10;;;;;;;5.30;4.30;;;;;;;-2.60;71.48;99180.02;210073;1295;139740;-66
2022/11/18 20:49:13;;;;;;;11.10;7.50;;;;;;;-2.70;71.34;99184.15;210154;1294;140882;-68
2022/11/18 20:54:16;;;;;;;8.30;6.80;;;;;;;-2.75;71.39;99188.65;210119;1282;140268;-69
2022/11/18 20:59:20;;;;;;;9.80;6.50;;;;;;;-2.77;71.44;99193.46;210322;1294;139680;-70
2022/11/18 21:04:23;;;;;;;10.20;8.30;;;;;;;-2.82;71.37;99195.88;210206;1293;140204;-68
2022/11/18 21:09:30;;;;;;;6.10;5.20;;;;;;;-2.88;71.53;99196.70;210476;1294;140895;-70
2022/11/18 21:14:34;;;;;;;7.90;6.60;;;;;;;-2.94;71.58;99198.58;210300;1293;141325;-69
2022/11/18 21:19:38;;;;;;;9.50;6.20;;;;;;;-3.01;71.48;99199.84;210273;1294;140467;-69
2022/11/18 21:24:41;;;;;;;11.80;6.30;;;;;;;-3.09;71.57;99203.30;210405;1287;140960;-69
2022/11/18 21:29:48;;;;;;;9.50;6.70;;;;;;;-3.14;71.42;99205.21;210481;1293;140435;-67
2022/11/18 21:34:52;;;;;;;12.20;6.80;;;;;;;-3.21;71.50;99210.93;210441;1287;140137;-66
2022/11/18 21:39:56;;;;;;;12.80;7.80;;;;;;;-3.26;71.49;99213.74;210441;1295;140009;-70
2022/11/18 21:44:59;;;;;;;12.60;8.20;;;;;;;-3.31;71.73;99212.91;210329;1285;141775;-66
2022/11/18 21:50:04;;;;;;;11.40;6.50;;;;;;;-3.40;71.47;99213.14;210506;1285;139758;-69
2022/11/18 21:55:07;;;;;;;13.70;8.00;;;;;;;-3.49;71.76;99217.50;210297;1294;139701;-65
2022/11/18 22:00:15;;;;;;;10.20;6.80;;;;;;;-3.55;71.78;99220.56;210342;1293;140329;-72
2022/11/18 22:05:22;;;;;;;12.20;8.00;;;;;;;-3.56;71.98;99224.92;210322;1294;140621;-69
2022/11/18 22:10:26;;;;;;;15.50;8.90;;;;;;;-3.57;72.35;99227.04;210391;1294;139346;-67
2022/11/18 22:15:29;;;;;;;14.30;8.20;;;;;;;-3.58;72.51;99227.98;210393;1295;140434;-69
2022/11/18 22:20:33;;;;;;;12.80;8.40;;;;;;;-3.58;72.46;99229.73;210414;1288;139927;-67
2022/11/18 22:25:36;;;;;;;14.70;9.00;;;;;;;-3.62;72.38;99240.75;210344;1290;140544;-65
2022/11/18 22:30:39;;;;;;;13.50;8.70;;;;;;;-3.68;72.56;99246.27;210444;1285;139964;-66
2022/11/18 22:35:42;;;;;;;12.50;9.60;;;;;;;-3.78;72.77;99249.65;210289;1292;139643;-64
2022/11/18 22:40:46;;;;;;;20.20;11.70;;;;;;;-3.83;72.66;99248.98;210491;1298;139980;-67
2022/11/18 22:46:06;;;;;;;18.20;10.70;;;;;;;-3.86;72.66;99250.02;210541;1295;140901;-72
2022/11/18 22:51:10;;;;;;;18.90;12.60;;;;;;;-3.86;72.72;99250.02;210342;1286;140888;-65
2022/11/18 22:56:15;;;;;;;22.10;14.30;;;;;;;-3.87;72.84;99260.10;210566;1292;140108;-69
2022/11/18 23:01:21;;;;;;;26.80;13.60;;;;;;;-3.86;73.12;99259.74;210099;1291;140572;-69
2022/11/18 23:06:25;;;;;;;27.30;12.60;;;;;;;-3.87;73.12;99264.63;210255;1292;140232;-69
2022/11/18 23:16:52;;;;;;;21.90;12.30;;;;;;;-3.89;73.47;99254.42;210706;1293;139733;-67
2022/11/18 23:21:56;;;;;;;23.90;13.70;;;;;;;-3.88;73.67;99255.60;210475;1300;140710;-66
2022/11/18 23:26:59;;;;;;;22.70;12.30;;;;;;;-3.83;73.70;99257.52;210354;1298;140580;-68
2022/11/18 23:32:03;;;;;;;22.00;12.60;;;;;;;-3.75;73.94;99251.64;210531;1294;141168;-68
2022/11/18 23:37:07;;;;;;;23.20;12.30;;;;;;;-3.65;74.13;99251.13;210585;1296;140061;-68
2022/11/18 23:42:11;;;;;;;19.10;12.40;;;;;;;-3.60;74.23;99252.84;210361;1293;140642;-68
2022/11/18 23:47:14;;;;;;;16.70;11.90;;;;;;;-3.56;74.18;99247.75;210615;1288;141306;-65
2022/11/18 23:52:18;;;;;;;20.20;12.90;;;;;;;-3.55;74.13;99249.64;210331;1291;142375;-67
2022/11/18 23:57:22;;;;;;;24.40;14.60;;;;;;;-3.56;74.15;99249.05;210641;1294;140170;-68
